KQA116 HKJK-EHAM
Flight info
| Callsign | KQA116 |
|---|---|
| Flight time | N/A |
| Altitude | 36000 |
| Route | ETORU1A LOTAS UM308 RUDOL/N0495F370 UM308 GETOL/N0492F390 UM308 KONET UG650 RASKA/N0494F380 T513 EGMEG/N0490F390 G660 JDW/N0494F380 L677 MIGDA/N0490F400 L677 CVO L617 NOZ L551 ANTAR DCT RIPLI DCT BITLA DCT ENFAR DCT LURID DCT LAMSI DCT MAPOX DCT NORKU |
| Aircraft | B788/H-SDE1E2E3FGHIJ2J3J4J5M1RWXYZ/LB1D1 |
Departure
| Time | N/A |
|---|---|
| Airport | Jomo Kenyatta International Airport (HKJK) |
Arrival
| Time | 2026-05-05 17:01 |
|---|---|
| Airport | Amsterdam Airport Schiphol (EHAM) |
| Time | Latitude | Longitude | Altitude | Speed | Heading |
|---|---|---|---|---|---|
| 2026-05-05 16:13 | 50.11890 | 10.87106 | 40995 ft | 478 kts | 305° |
| 2026-05-05 16:13 | 50.13967 | 10.83054 | 40992 ft | 478 kts | 305° |
| 2026-05-05 16:14 | 50.22246 | 10.66838 | 40997 ft | 477 kts | 305° |
| 2026-05-05 16:15 | 50.29815 | 10.51925 | 41002 ft | 478 kts | 305° |
| 2026-05-05 16:16 | 50.38074 | 10.35555 | 40999 ft | 479 kts | 305° |
| 2026-05-05 16:17 | 50.44248 | 10.23252 | 41001 ft | 480 kts | 305° |
| 2026-05-05 16:18 | 50.50422 | 10.10887 | 40990 ft | 479 kts | 304° |
| 2026-05-05 16:19 | 50.56581 | 9.98495 | 40999 ft | 479 kts | 304° |
| 2026-05-05 16:19 | 50.62729 | 9.86068 | 40995 ft | 479 kts | 304° |
| 2026-05-05 16:20 | 50.70886 | 9.69487 | 40988 ft | 480 kts | 304° |
| 2026-05-05 16:22 | 50.81083 | 9.48609 | 41000 ft | 479 kts | 304° |
| 2026-05-05 16:23 | 50.89187 | 9.31897 | 40986 ft | 477 kts | 304° |
| 2026-05-05 16:23 | 50.95216 | 9.19390 | 40996 ft | 479 kts | 304° |
| 2026-05-05 16:24 | 50.99262 | 9.10967 | 40997 ft | 479 kts | 304° |
| 2026-05-05 16:25 | 51.05310 | 8.98323 | 41004 ft | 479 kts | 304° |
| 2026-05-05 16:25 | 51.11351 | 8.85631 | 41003 ft | 480 kts | 304° |
| 2026-05-05 16:26 | 51.20368 | 8.69901 | 41010 ft | 483 kts | 311° |
| 2026-05-05 16:27 | 51.25048 | 8.62189 | 41008 ft | 483 kts | 311° |
| 2026-05-05 16:27 | 51.29711 | 8.54487 | 41018 ft | 481 kts | 310° |
| 2026-05-05 16:28 | 51.34356 | 8.46786 | 41022 ft | 481 kts | 310° |
| 2026-05-05 16:28 | 51.39003 | 8.39064 | 41031 ft | 481 kts | 310° |
| 2026-05-05 16:29 | 51.43632 | 8.31342 | 41033 ft | 480 kts | 310° |
| 2026-05-05 16:29 | 51.48247 | 8.23623 | 41040 ft | 479 kts | 310° |
| 2026-05-05 16:30 | 51.52860 | 8.15882 | 41040 ft | 480 kts | 310° |
| 2026-05-05 16:30 | 51.57447 | 8.08160 | 41049 ft | 480 kts | 310° |
| 2026-05-05 16:31 | 51.61996 | 8.00479 | 41057 ft | 481 kts | 310° |
| 2026-05-05 16:31 | 51.66604 | 7.92675 | 41062 ft | 480 kts | 310° |
| 2026-05-05 16:32 | 51.71205 | 7.84855 | 41061 ft | 480 kts | 310° |
| 2026-05-05 16:32 | 51.75768 | 7.77078 | 41066 ft | 480 kts | 310° |
| 2026-05-05 16:33 | 51.80352 | 7.69239 | 41064 ft | 480 kts | 310° |
| 2026-05-05 16:33 | 51.84942 | 7.61366 | 41072 ft | 480 kts | 310° |
| 2026-05-05 16:34 | 51.89470 | 7.53574 | 40402 ft | 479 kts | 310° |
| 2026-05-05 16:34 | 51.91753 | 7.49635 | 39911 ft | 479 kts | 310° |
| 2026-05-05 16:34 | 51.94032 | 7.45698 | 39455 ft | 478 kts | 309° |
| 2026-05-05 16:35 | 51.96306 | 7.41764 | 38976 ft | 478 kts | 309° |
| 2026-05-05 16:35 | 51.98577 | 7.37828 | 38492 ft | 477 kts | 309° |
| 2026-05-05 16:35 | 52.00842 | 7.33896 | 37849 ft | 477 kts | 309° |
| 2026-05-05 16:35 | 52.02851 | 7.30404 | 37243 ft | 478 kts | 309° |
| 2026-05-05 16:36 | 52.05091 | 7.26505 | 36561 ft | 479 kts | 308° |
| 2026-05-05 16:36 | 52.07365 | 7.22537 | 35880 ft | 480 kts | 308° |
| 2026-05-05 16:36 | 52.09642 | 7.18557 | 35208 ft | 481 kts | 308° |
| 2026-05-05 16:36 | 52.11923 | 7.14569 | 34532 ft | 482 kts | 308° |
| 2026-05-05 16:37 | 52.14207 | 7.10566 | 33832 ft | 483 kts | 307° |
| 2026-05-05 16:37 | 52.16495 | 7.06548 | 33007 ft | 484 kts | 307° |
| 2026-05-05 16:37 | 52.18789 | 7.02513 | 32152 ft | 486 kts | 308° |
| 2026-05-05 16:37 | 52.21090 | 6.98461 | 31276 ft | 488 kts | 307° |
| 2026-05-05 16:38 | 52.23270 | 6.94229 | 30338 ft | 489 kts | 305° |
| 2026-05-05 16:38 | 52.25426 | 6.89911 | 29460 ft | 491 kts | 305° |
| 2026-05-05 16:38 | 52.27568 | 6.85638 | 28909 ft | 483 kts | 305° |
| 2026-05-05 16:38 | 52.29689 | 6.81398 | 28222 ft | 480 kts | 305° |
| 2026-05-05 16:39 | 52.31787 | 6.77184 | 27568 ft | 476 kts | 306° |
| 2026-05-05 16:39 | 52.33866 | 6.72999 | 26937 ft | 472 kts | 306° |
| 2026-05-05 16:39 | 52.35929 | 6.68847 | 26332 ft | 468 kts | 306° |
| 2026-05-05 16:39 | 52.37974 | 6.64729 | 25747 ft | 465 kts | 306° |
| 2026-05-05 16:40 | 52.39998 | 6.60639 | 25171 ft | 460 kts | 306° |
| 2026-05-05 16:40 | 52.42006 | 6.56575 | 24615 ft | 457 kts | 307° |
| 2026-05-05 16:40 | 52.43991 | 6.52542 | 24056 ft | 452 kts | 305° |
| 2026-05-05 16:40 | 52.45655 | 6.48231 | 23505 ft | 445 kts | 294° |
| 2026-05-05 16:41 | 52.46750 | 6.43535 | 22874 ft | 438 kts | 283° |
| 2026-05-05 16:41 | 52.47267 | 6.38655 | 22247 ft | 432 kts | 274° |
| 2026-05-05 16:41 | 52.47520 | 6.33763 | 21608 ft | 429 kts | 274° |
| 2026-05-05 16:41 | 52.47765 | 6.28909 | 21001 ft | 425 kts | 273° |
| 2026-05-05 16:42 | 52.47998 | 6.24101 | 20404 ft | 421 kts | 273° |
| 2026-05-05 16:42 | 52.48230 | 6.19328 | 19810 ft | 418 kts | 274° |
| 2026-05-05 16:42 | 52.48462 | 6.14599 | 19220 ft | 414 kts | 274° |
| 2026-05-05 16:42 | 52.48690 | 6.09907 | 18636 ft | 411 kts | 274° |
| 2026-05-05 16:43 | 52.48911 | 6.05251 | 18033 ft | 408 kts | 274° |
| 2026-05-05 16:43 | 52.49130 | 6.00635 | 17397 ft | 404 kts | 274° |
| 2026-05-05 16:43 | 52.49346 | 5.96065 | 16791 ft | 400 kts | 274° |
| 2026-05-05 16:43 | 52.49559 | 5.91541 | 16179 ft | 396 kts | 274° |
| 2026-05-05 16:44 | 52.49767 | 5.87049 | 15567 ft | 393 kts | 274° |
| 2026-05-05 16:44 | 52.49969 | 5.82674 | 15517 ft | 375 kts | 274° |
| 2026-05-05 16:44 | 52.50159 | 5.78519 | 15506 ft | 356 kts | 274° |
| 2026-05-05 16:44 | 52.50339 | 5.74561 | 15500 ft | 339 kts | 273° |
| 2026-05-05 16:45 | 52.50508 | 5.70798 | 15478 ft | 323 kts | 273° |
| 2026-05-05 16:45 | 52.50668 | 5.67210 | 15461 ft | 308 kts | 273° |
| 2026-05-05 16:45 | 52.50821 | 5.63741 | 15092 ft | 305 kts | 273° |
| 2026-05-05 16:45 | 52.50967 | 5.60332 | 14736 ft | 302 kts | 271° |
| 2026-05-05 16:46 | 52.50693 | 5.56951 | 14345 ft | 300 kts | 250° |
| 2026-05-05 16:46 | 52.49689 | 5.54049 | 14302 ft | 286 kts | 232° |
| 2026-05-05 16:46 | 52.48458 | 5.51531 | 14287 ft | 272 kts | 232° |
| 2026-05-05 16:46 | 52.47299 | 5.49221 | 14205 ft | 262 kts | 231° |
| 2026-05-05 16:47 | 52.46140 | 5.46913 | 13867 ft | 263 kts | 231° |
| 2026-05-05 16:47 | 52.44985 | 5.44597 | 13554 ft | 261 kts | 231° |
| 2026-05-05 16:47 | 52.43838 | 5.42298 | 13229 ft | 260 kts | 231° |
| 2026-05-05 16:47 | 52.42695 | 5.40012 | 12895 ft | 259 kts | 231° |
| 2026-05-05 16:48 | 52.41556 | 5.37739 | 12584 ft | 257 kts | 231° |
| 2026-05-05 16:48 | 52.40421 | 5.35473 | 12253 ft | 256 kts | 231° |
| 2026-05-05 16:48 | 52.39935 | 5.34505 | 12115 ft | 256 kts | 231° |
| 2026-05-05 16:48 | 52.38809 | 5.32260 | 11802 ft | 255 kts | 231° |
| 2026-05-05 16:49 | 52.37688 | 5.30027 | 11492 ft | 253 kts | 231° |
| 2026-05-05 16:49 | 52.36569 | 5.27801 | 11175 ft | 252 kts | 231° |
| 2026-05-05 16:49 | 52.35456 | 5.25589 | 10866 ft | 251 kts | 231° |
| 2026-05-05 16:49 | 52.34349 | 5.23390 | 10555 ft | 250 kts | 231° |
| 2026-05-05 16:50 | 52.33245 | 5.21199 | 10244 ft | 249 kts | 231° |
| 2026-05-05 16:50 | 52.32155 | 5.19038 | 9945 ft | 248 kts | 230° |
| 2026-05-05 16:50 | 52.31059 | 5.16867 | 9626 ft | 247 kts | 230° |
| 2026-05-05 16:50 | 52.29967 | 5.14707 | 9301 ft | 246 kts | 230° |
| 2026-05-05 16:51 | 52.28878 | 5.12552 | 8966 ft | 246 kts | 230° |
| 2026-05-05 16:51 | 52.27792 | 5.10408 | 8623 ft | 245 kts | 230° |
| 2026-05-05 16:51 | 52.26709 | 5.08270 | 8331 ft | 244 kts | 230° |
| 2026-05-05 16:51 | 52.25631 | 5.06142 | 8008 ft | 243 kts | 231° |
| 2026-05-05 16:52 | 52.24511 | 5.04086 | 7679 ft | 242 kts | 220° |
| 2026-05-05 16:52 | 52.23073 | 5.02669 | 7367 ft | 241 kts | 210° |
| 2026-05-05 16:52 | 52.21631 | 5.01260 | 7045 ft | 241 kts | 212° |
| 2026-05-05 16:52 | 52.20199 | 4.99838 | 6737 ft | 242 kts | 212° |
| 2026-05-05 16:53 | 52.18755 | 4.98428 | 6416 ft | 242 kts | 211° |
| 2026-05-05 16:53 | 52.17309 | 4.97025 | 6089 ft | 242 kts | 211° |
| 2026-05-05 16:53 | 52.15860 | 4.95617 | 5757 ft | 242 kts | 211° |
| 2026-05-05 16:53 | 52.14417 | 4.94213 | 5432 ft | 241 kts | 211° |
| 2026-05-05 16:54 | 52.13003 | 4.92839 | 5124 ft | 233 kts | 211° |
| 2026-05-05 16:54 | 52.11717 | 4.91328 | 4820 ft | 224 kts | 229° |
| 2026-05-05 16:54 | 52.11092 | 4.89083 | 4542 ft | 217 kts | 260° |
| 2026-05-05 16:54 | 52.11051 | 4.86753 | 4290 ft | 210 kts | 271° |
| 2026-05-05 16:55 | 52.11060 | 4.84414 | 4013 ft | 205 kts | 271° |
| 2026-05-05 16:55 | 52.11076 | 4.82111 | 3746 ft | 203 kts | 274° |
| 2026-05-05 16:55 | 52.11574 | 4.80063 | 3427 ft | 190 kts | 309° |
| 2026-05-05 16:55 | 52.12489 | 4.78955 | 3230 ft | 170 kts | 333° |
| 2026-05-05 16:56 | 52.13507 | 4.78134 | 3023 ft | 156 kts | 334° |
| 2026-05-05 16:56 | 52.14423 | 4.77378 | 2835 ft | 143 kts | 334° |
| 2026-05-05 16:56 | 52.15329 | 4.76773 | 2656 ft | 141 kts | 345° |
| 2026-05-05 16:56 | 52.16292 | 4.76644 | 2481 ft | 139 kts | 2° |
| 2026-05-05 16:57 | 52.17240 | 4.76679 | 2314 ft | 138 kts | 1° |
| 2026-05-05 16:57 | 52.18190 | 4.76734 | 2126 ft | 136 kts | 3° |
| 2026-05-05 16:57 | 52.19145 | 4.76823 | 1939 ft | 135 kts | 4° |
| 2026-05-05 16:57 | 52.20071 | 4.76908 | 1766 ft | 137 kts | 4° |
| 2026-05-05 16:58 | 52.21025 | 4.76995 | 1577 ft | 135 kts | 4° |
| 2026-05-05 16:58 | 52.21950 | 4.77084 | 1385 ft | 131 kts | 3° |
| 2026-05-05 16:58 | 52.22853 | 4.77163 | 1225 ft | 132 kts | 4° |
| 2026-05-05 16:58 | 52.23771 | 4.77248 | 1035 ft | 132 kts | 4° |
| 2026-05-05 16:59 | 52.24692 | 4.77330 | 863 ft | 132 kts | 2° |
| 2026-05-05 16:59 | 52.25608 | 4.77407 | 687 ft | 131 kts | 4° |
| 2026-05-05 16:59 | 52.26514 | 4.77505 | 530 ft | 132 kts | 4° |
| 2026-05-05 16:59 | 52.27122 | 4.77563 | 413 ft | 131 kts | 5° |
| 2026-05-05 17:00 | 52.28037 | 4.77621 | 234 ft | 131 kts | 8° |
| 2026-05-05 17:00 | 52.28910 | 4.77710 | 54 ft | 122 kts | 8° |
| 2026-05-05 17:00 | 52.29694 | 4.77802 | 3 ft | 95 kts | 4° |
| 2026-05-05 17:00 | 52.30148 | 4.77834 | 5 ft | 50 kts | 3° |
| 2026-05-05 17:01 | 52.30452 | 4.77779 | 6 ft | 19 kts | 336° |
| 2026-05-05 17:01 | 52.30517 | 4.77729 | 5 ft | 9 kts | 334° |
| 2026-05-05 17:01 | 52.30570 | 4.77685 | 5 ft | 8 kts | 330° |
| 2026-05-05 17:01 | 52.30618 | 4.77642 | 5 ft | 8 kts | 333° |
| 2026-05-05 17:02 | 52.30674 | 4.77599 | 6 ft | 15 kts | 343° |
| 2026-05-05 17:02 | 52.30827 | 4.77604 | 5 ft | 25 kts | 5° |
| 2026-05-05 17:02 | 52.30989 | 4.77625 | 5 ft | 16 kts | 1° |
| 2026-05-05 17:02 | 52.31028 | 4.77596 | 5 ft | 7 kts | 306° |
| 2026-05-05 17:03 | 52.31057 | 4.77482 | 5 ft | 16 kts | 289° |
| 2026-05-05 17:03 | 52.31073 | 4.77293 | 5 ft | 17 kts | 273° |
| 2026-05-05 17:03 | 52.31082 | 4.77103 | 5 ft | 16 kts | 269° |
| 2026-05-05 17:03 | 52.31111 | 4.76960 | 5 ft | 10 kts | 338° |
| 2026-05-05 17:04 | 52.31171 | 4.76956 | 5 ft | 10 kts | 335° |
| 2026-05-05 17:04 | 52.31212 | 4.76882 | 6 ft | 8 kts | 305° |
| 2026-05-05 17:04 | 52.31220 | 4.76862 | 5 ft | 0 kts | 303° |